Ana Sayfa
METAR-TAF:

METAR-TAF

Havaalanları :

San José del Cabo, Meksika

Enlem: 23-09N, Boylam: 109-42W, yükseklik: 109 m

Güncel hava durumu gözlemi

Rapor saat 22:45 UTC de 1 saat ve 1 dakika önce yapıldı.
Rüzgar güneydoğudan 12 kt
Sıcaklık 22°C
Nem 60%
Basınç 1013 hPa
Görüş mesafesi: 16.1 km
Açık gökyüzü

METAR: MMSD 232245Z 13012KT 10SM SKC 22/14 A2991 RMK CU

Saat: 16:46 (23:46 UTC)

Tahmin

Rapor saat 16:53 UTC de 6 saat ve 53 dakika önce yapıldı.
Ayın 23'si saat 18 UTC'den ayın 24'si saat 18 UTC'ye kadar geçerli Tahmin
Rüzgar kuzeybatıdan 12 kt
Görüş mesafesi: 10 km
Açık gökyüzü
Ayın 24'si saat 0600 UTC'den
Rüzgar kuzey/kuzeybatıdan 10 kt
Görüş mesafesi: 10 km
Açık gökyüzü

TAF: MMSD 231653Z 2318/2418 32012KT P6SM SKC FM240600 34010KT P6SM SKC

4.000'den fazla havaalanı için hava durumu gözlemleri ve tahminleri (METAR ve TAF raporları).

Kullanılabilir istasyonlar harita üzerinde sarı ve kırmızı noktalarla gösterilir.

İstasyonun adını görmek için fareyi noktanın üzerinde gezdirin.

Sonrasında hava gözlem ve tahminlerini görmek için tıklayın.

Haritayı değiştirmek için: yaklaştırmak için siyah artı işaretli yeşil düğmeye ve uzaklaştırmak için de eksi işaretli düğmeye hızla tıklayın; bitişik haritalar için yeşil okları kullanın.


METAR-TAF: